createdAt,value
2022-10-23T00:02:26.262Z,42.50
2022-10-23T00:04:58.497Z,42.56
2022-10-23T00:10:09.327Z,42.61
2022-10-23T00:12:41.771Z,42.70
2022-10-23T00:15:12.793Z,42.66
2022-10-23T00:17:45.345Z,42.72
2022-10-23T00:20:18.627Z,42.70
2022-10-23T00:22:50.790Z,42.76
2022-10-23T00:25:23.032Z,42.62
2022-10-23T00:27:55.132Z,42.79
2022-10-23T00:30:27.439Z,42.88
2022-10-23T00:32:59.731Z,42.85
2022-10-23T00:35:31.980Z,42.75
2022-10-23T00:38:04.158Z,42.89
2022-10-23T00:40:36.537Z,42.90
2022-10-23T00:43:11.838Z,42.92
2022-10-23T00:45:44.112Z,42.92
2022-10-23T00:48:16.850Z,42.98
2022-10-23T00:50:47.373Z,42.99
2022-10-23T00:53:20.262Z,43.11
2022-10-23T00:55:55.004Z,43.03
2022-10-23T00:58:27.263Z,43.05
2022-10-23T01:00:59.448Z,43.12
2022-10-23T01:03:32.042Z,43.17
2022-10-23T01:06:04.955Z,43.29
2022-10-23T01:08:42.556Z,43.33
2022-10-23T01:11:16.765Z,43.22
2022-10-23T01:13:56.030Z,43.22
2022-10-23T01:16:35.116Z,43.30
2022-10-23T01:19:13.144Z,43.39
2022-10-23T01:21:54.908Z,43.53
2022-10-23T01:24:37.682Z,43.49
2022-10-23T01:27:19.263Z,43.43
2022-10-23T01:29:59.353Z,43.60
2022-10-23T01:32:35.664Z,43.59
2022-10-23T01:35:11.698Z,43.63
2022-10-23T01:37:46.694Z,43.69
2022-10-23T01:40:23.942Z,43.84
2022-10-23T01:42:58.401Z,43.90
2022-10-23T01:45:35.744Z,43.80
2022-10-23T01:48:10.531Z,43.85
2022-10-23T01:50:43.715Z,43.92
2022-10-23T01:53:16.071Z,43.92
2022-10-23T01:55:49.855Z,43.98
2022-10-23T01:58:22.798Z,43.89
2022-10-23T02:00:55.843Z,44.05
2022-10-23T02:03:29.765Z,43.99
2022-10-23T02:06:02.056Z,44.03
2022-10-23T02:08:34.312Z,44.03
2022-10-23T02:11:11.322Z,44.02
2022-10-23T02:13:48.267Z,44.04
2022-10-23T02:16:26.627Z,44.20
2022-10-23T02:19:05.829Z,44.26
2022-10-23T02:21:42.997Z,44.21
2022-10-23T02:24:17.463Z,44.29
2022-10-23T02:26:54.106Z,44.35
2022-10-23T02:29:29.561Z,44.36
2022-10-23T02:32:01.754Z,44.44
2022-10-23T02:34:34.432Z,44.46
2022-10-23T02:37:05.122Z,44.57
2022-10-23T02:39:37.410Z,44.69
2022-10-23T02:42:14.900Z,44.61
2022-10-23T02:44:54.975Z,44.51
2022-10-23T02:47:38.814Z,44.62
2022-10-23T02:50:16.947Z,44.60
2022-10-23T02:52:54.609Z,44.76
2022-10-23T02:55:35.438Z,44.66
2022-10-23T02:58:13.968Z,44.73
2022-10-23T03:00:50.406Z,44.70
2022-10-23T03:03:25.907Z,44.74
2022-10-23T03:05:58.193Z,44.72
2022-10-23T03:08:30.474Z,44.78
2022-10-23T03:11:02.786Z,44.72
2022-10-23T03:13:34.913Z,44.71
2022-10-23T03:16:07.386Z,44.71
2022-10-23T03:18:37.952Z,44.80
2022-10-23T03:21:10.447Z,44.88
2022-10-23T03:23:42.851Z,44.84
2022-10-23T03:26:15.297Z,44.86
2022-10-23T03:28:47.479Z,44.95
2022-10-23T03:31:19.673Z,44.89
2022-10-23T03:33:51.989Z,44.97
2022-10-23T03:36:24.196Z,44.95
2022-10-23T03:38:56.577Z,44.98
2022-10-23T03:41:28.880Z,45.11
2022-10-23T03:44:01.173Z,45.03
2022-10-23T03:46:33.453Z,45.11
2022-10-23T03:49:05.972Z,45.05
2022-10-23T03:51:36.735Z,45.11
2022-10-23T03:54:09.223Z,45.19
2022-10-23T03:56:39.741Z,45.19
2022-10-23T03:59:11.974Z,45.37
2022-10-23T04:01:44.279Z,45.26
2022-10-23T04:04:17.347Z,45.36
2022-10-23T04:06:49.673Z,45.31
2022-10-23T04:09:22.060Z,45.36
2022-10-23T04:11:54.171Z,45.39
2022-10-23T04:14:27.065Z,45.54
2022-10-23T04:16:59.253Z,45.65
2022-10-23T04:19:31.579Z,45.72
2022-10-23T04:22:03.684Z,45.68
2022-10-23T04:24:35.811Z,45.70
2022-10-23T04:27:08.073Z,45.88
2022-10-23T04:29:40.184Z,45.93
2022-10-23T04:32:12.347Z,45.89
2022-10-23T04:34:44.526Z,46.02
2022-10-23T04:37:16.786Z,46.03
2022-10-23T04:39:49.071Z,46.18
2022-10-23T04:42:21.365Z,46.16
2022-10-23T04:44:53.657Z,46.24
2022-10-23T04:47:26.342Z,46.30
2022-10-23T04:49:58.544Z,46.36
2022-10-23T04:52:30.706Z,46.44
2022-10-23T04:55:03.005Z,46.42
2022-10-23T04:57:35.225Z,46.49
2022-10-23T05:00:10.935Z,46.56
2022-10-23T05:02:43.466Z,46.61
2022-10-23T05:05:16.036Z,46.72
2022-10-23T05:07:48.372Z,46.82
2022-10-23T05:10:20.797Z,46.87
2022-10-23T05:12:53.065Z,46.87
2022-10-23T05:15:25.282Z,46.98
2022-10-23T05:18:00.495Z,47.05
2022-10-23T05:20:35.125Z,47.06
2022-10-23T05:23:11.138Z,47.10
2022-10-23T05:25:43.375Z,47.26
2022-10-23T05:28:18.677Z,47.21
2022-10-23T05:30:53.375Z,47.35
2022-10-23T05:33:26.168Z,47.44
2022-10-23T05:35:58.718Z,47.46
2022-10-23T05:38:29.817Z,47.54
2022-10-23T05:41:05.069Z,47.59
2022-10-23T05:43:38.119Z,47.72
2022-10-23T05:46:11.970Z,47.68
2022-10-23T05:48:48.388Z,47.71
2022-10-23T05:51:25.686Z,47.78
2022-10-23T05:54:01.424Z,47.77
2022-10-23T05:56:34.308Z,47.82
2022-10-23T05:59:11.621Z,47.95
2022-10-23T06:02:06.265Z,47.86
2022-10-23T06:04:43.070Z,47.87
2022-10-23T06:07:22.811Z,48.02
2022-10-23T06:10:04.407Z,48.10
2022-10-23T06:12:36.932Z,48.06
2022-10-23T06:15:10.338Z,48.10
2022-10-23T06:17:44.175Z,48.20
2022-10-23T06:20:17.136Z,48.13
2022-10-23T06:22:47.831Z,48.23
2022-10-23T06:25:28.895Z,48.25
2022-10-23T06:28:02.079Z,48.33
2022-10-23T06:30:44.982Z,48.21
2022-10-23T06:33:17.847Z,48.33
2022-10-23T06:35:50.648Z,48.36
2022-10-23T06:38:23.419Z,48.35
2022-10-23T06:41:07.756Z,48.35
2022-10-23T06:43:43.302Z,48.36
2022-10-23T06:46:18.365Z,48.34
2022-10-23T06:48:51.137Z,48.41
2022-10-23T06:51:25.338Z,48.39
2022-10-23T06:53:57.886Z,48.38
2022-10-23T06:56:29.445Z,48.33
2022-10-23T06:59:01.871Z,48.39
2022-10-23T07:07:55.335Z,48.43
2022-10-23T07:14:55.133Z,48.57
2022-10-23T07:18:14.851Z,48.43
2022-10-23T07:25:34.590Z,48.49
2022-10-23T07:28:22.405Z,48.44
2022-10-23T07:31:00.782Z,48.42
2022-10-23T07:33:33.165Z,48.33
2022-10-23T07:36:07.495Z,48.25
2022-10-23T07:38:42.835Z,48.36
2022-10-23T07:41:16.607Z,48.35
2022-10-23T07:43:49.014Z,48.37
2022-10-23T07:46:22.214Z,48.33
2022-10-23T07:48:56.984Z,48.31
2022-10-23T07:51:30.096Z,48.27
2022-10-23T07:54:02.869Z,48.23
2022-10-23T07:56:37.600Z,48.23
2022-10-23T07:59:11.261Z,48.18
2022-10-23T08:01:45.871Z,48.17
2022-10-23T08:04:19.573Z,48.15
2022-10-23T08:06:52.270Z,48.09
2022-10-23T08:09:27.933Z,47.97
2022-10-23T08:12:00.470Z,47.95
2022-10-23T08:14:33.181Z,47.97
2022-10-23T08:17:05.464Z,47.76
2022-10-23T08:19:38.469Z,47.78
2022-10-23T08:22:27.644Z,47.77
2022-10-23T08:24:58.267Z,47.62
2022-10-23T08:27:35.572Z,47.64
2022-10-23T08:30:09.605Z,47.58
2022-10-23T08:32:41.978Z,47.43
2022-10-23T08:35:16.865Z,47.48
2022-10-23T08:37:49.283Z,47.43
2022-10-23T08:40:25.345Z,47.39
2022-10-23T08:43:16.050Z,47.22
2022-10-23T08:45:51.435Z,47.11
2022-10-23T08:48:30.312Z,47.06
2022-10-23T08:58:37.837Z,46.56
2022-10-23T09:01:28.272Z,46.55
2022-10-23T09:04:00.905Z,46.51
2022-10-23T09:06:35.077Z,46.36
2022-10-23T09:09:23.117Z,46.19
2022-10-23T09:12:01.274Z,46.19
2022-10-23T09:14:58.500Z,45.98
2022-10-23T09:17:33.090Z,45.92
2022-10-23T09:20:18.254Z,45.85
2022-10-23T09:22:51.605Z,45.72
2022-10-23T09:25:26.852Z,45.56
2022-10-23T09:28:22.908Z,45.55
2022-10-23T09:30:55.414Z,45.27
2022-10-23T09:33:26.532Z,45.21
2022-10-23T09:36:01.639Z,45.21
2022-10-23T09:38:35.322Z,44.97
2022-10-23T09:41:13.258Z,44.55
2022-10-23T09:43:45.471Z,44.28
2022-10-23T09:46:17.644Z,44.43
2022-10-23T09:49:03.487Z,44.23
2022-10-23T09:51:41.947Z,43.95
2022-10-23T09:54:19.638Z,43.59
2022-10-23T09:56:52.195Z,43.16
2022-10-23T09:59:27.928Z,42.79
2022-10-23T10:02:04.181Z,42.64
2022-10-23T10:04:39.194Z,42.25
2022-10-23T10:07:21.378Z,41.84
2022-10-23T10:09:55.613Z,41.60
2022-10-23T10:12:38.023Z,41.60
2022-10-23T10:15:23.927Z,40.81
2022-10-23T10:18:03.044Z,40.36
2022-10-23T10:20:55.648Z,40.21
2022-10-23T10:23:33.594Z,39.54
2022-10-23T10:26:14.884Z,39.40
2022-10-23T10:28:55.871Z,38.93
2022-10-23T10:31:35.111Z,38.44
2022-10-23T10:34:14.085Z,38.50
2022-10-23T10:36:51.126Z,38.27
2022-10-23T10:39:33.224Z,37.84
2022-10-23T10:42:08.363Z,37.77
2022-10-23T10:44:47.745Z,37.21
2022-10-23T10:47:25.682Z,36.87
2022-10-23T10:50:08.174Z,36.81
2022-10-23T10:52:49.163Z,36.23
2022-10-23T10:55:24.935Z,35.88
2022-10-23T10:58:00.564Z,35.68
2022-10-23T11:00:34.617Z,35.42
2022-10-23T11:03:15.045Z,35.25
2022-10-23T11:05:48.812Z,34.70
2022-10-23T11:08:27.865Z,34.44
2022-10-23T11:11:03.001Z,34.45
2022-10-23T11:13:38.135Z,34.13
2022-10-23T11:16:14.407Z,33.88
2022-10-23T11:18:50.167Z,33.42
2022-10-23T11:21:29.227Z,33.19
2022-10-23T11:24:30.813Z,32.96
2022-10-23T11:27:15.468Z,32.78
2022-10-23T11:30:05.369Z,32.15
2022-10-23T11:32:52.545Z,32.14
2022-10-23T11:35:34.330Z,31.62
2022-10-23T11:38:10.477Z,31.55
2022-10-23T11:40:46.849Z,31.21
2022-10-23T11:43:31.425Z,31.02
2022-10-23T11:46:14.966Z,30.67
2022-10-23T11:48:47.961Z,30.65
2022-10-23T11:51:31.740Z,30.54
2022-10-23T11:54:27.333Z,30.40
2022-10-23T11:57:13.403Z,30.15
2022-10-23T11:59:55.254Z,29.74
2022-10-23T12:02:27.969Z,29.91
2022-10-23T12:05:02.006Z,29.93
2022-10-23T12:07:35.865Z,29.03
2022-10-23T12:10:20.097Z,28.94
2022-10-23T12:13:00.312Z,28.80
2022-10-23T12:15:33.368Z,28.98
2022-10-23T12:18:17.427Z,28.65
2022-10-23T12:20:51.795Z,28.45
2022-10-23T12:23:48.277Z,28.31
2022-10-23T12:26:44.059Z,27.97
2022-10-23T12:29:25.708Z,27.89
2022-10-23T12:32:02.580Z,28.04
2022-10-23T12:34:44.677Z,27.47
2022-10-23T12:37:28.795Z,27.43
2022-10-23T12:40:10.716Z,27.02
2022-10-23T12:42:44.680Z,27.23
2022-10-23T12:45:20.915Z,27.26
2022-10-23T12:47:54.129Z,27.18
2022-10-23T12:50:29.363Z,26.97
2022-10-23T12:53:03.287Z,26.79
2022-10-23T12:55:50.321Z,26.87
2022-10-23T12:58:26.608Z,26.58
2022-10-23T13:01:01.528Z,26.50
2022-10-23T13:03:36.295Z,26.30
2022-10-23T13:06:12.055Z,26.19
2022-10-23T13:08:46.621Z,26.09
2022-10-23T13:11:20.349Z,26.21
2022-10-23T13:13:52.604Z,26.13
2022-10-23T13:16:26.914Z,26.04
2022-10-23T13:18:59.685Z,25.96
2022-10-23T13:21:33.030Z,25.83
2022-10-23T13:24:05.516Z,25.59
2022-10-23T13:26:45.361Z,25.35
2022-10-23T13:29:22.243Z,25.53
2022-10-23T13:31:54.952Z,25.51
2022-10-23T13:34:30.839Z,25.36
2022-10-23T13:37:19.892Z,25.40
2022-10-23T13:40:02.442Z,25.20
2022-10-23T13:42:34.926Z,25.21
2022-10-23T13:45:10.316Z,25.37
2022-10-23T13:47:42.814Z,25.55
2022-10-23T13:50:15.367Z,25.43
2022-10-23T13:52:56.572Z,25.36
2022-10-23T13:55:33.628Z,25.22
2022-10-23T13:58:05.938Z,25.23
2022-10-23T14:00:39.170Z,25.26
2022-10-23T14:03:12.195Z,25.17
2022-10-23T14:05:44.320Z,25.32
2022-10-23T14:08:16.465Z,25.36
2022-10-23T14:10:49.185Z,25.51
2022-10-23T14:13:21.469Z,25.19
2022-10-23T14:15:57.639Z,25.40
2022-10-23T14:18:29.784Z,25.24
2022-10-23T14:21:04.098Z,25.74
2022-10-23T14:23:36.354Z,25.79
2022-10-23T14:26:10.527Z,25.78
2022-10-23T14:28:42.788Z,25.84
2022-10-23T14:31:16.641Z,25.76
2022-10-23T14:33:52.308Z,26.06
2022-10-23T14:36:26.457Z,26.00
2022-10-23T14:39:03.153Z,25.89
2022-10-23T14:41:35.407Z,26.28
2022-10-23T14:44:07.901Z,26.42
2022-10-23T14:46:40.140Z,26.40
2022-10-23T14:49:12.577Z,26.49
2022-10-23T14:51:44.869Z,26.64
2022-10-23T14:54:17.682Z,26.82
2022-10-23T14:56:50.250Z,26.90
2022-10-23T14:59:25.574Z,26.91
2022-10-23T15:01:59.056Z,27.09
2022-10-23T15:05:04.141Z,27.09
2022-10-23T15:07:47.846Z,27.26
2022-10-23T15:10:47.170Z,27.34
2022-10-23T15:13:24.265Z,27.60
2022-10-23T15:16:17.434Z,27.68
2022-10-23T15:18:50.076Z,27.86
2022-10-23T15:21:23.037Z,28.00
2022-10-23T15:23:55.517Z,28.01
2022-10-23T15:26:26.196Z,28.13
2022-10-23T15:29:00.949Z,28.28
2022-10-23T15:31:47.361Z,28.50
2022-10-23T15:34:22.127Z,28.58
2022-10-23T15:36:55.579Z,28.62
2022-10-23T15:39:33.731Z,28.56
2022-10-23T15:42:07.415Z,28.77
2022-10-23T15:44:39.810Z,28.75
2022-10-23T15:47:11.996Z,28.86
2022-10-23T15:49:42.548Z,28.88
2022-10-23T15:52:15.204Z,29.11
2022-10-23T15:54:48.069Z,29.11
2022-10-23T15:57:20.581Z,29.12
2022-10-23T15:59:53.524Z,29.17
2022-10-23T16:02:27.486Z,29.35
2022-10-23T16:04:59.895Z,29.45
2022-10-23T16:07:30.532Z,29.26
2022-10-23T16:10:04.220Z,29.43
2022-10-23T16:12:36.527Z,29.45
2022-10-23T16:15:10.520Z,29.65
2022-10-23T16:17:43.462Z,29.59
2022-10-23T16:20:15.969Z,29.62
2022-10-23T16:22:46.384Z,29.79
2022-10-23T16:25:18.890Z,29.92
2022-10-23T16:27:51.113Z,29.91
2022-10-23T16:30:24.390Z,29.99
2022-10-23T16:32:56.642Z,29.96
2022-10-23T16:35:31.167Z,30.15
2022-10-23T16:38:03.373Z,30.15
2022-10-23T16:40:35.613Z,30.34
2022-10-23T16:43:07.817Z,30.45
2022-10-23T16:45:40.045Z,30.55
2022-10-23T16:48:11.146Z,30.55
2022-10-23T16:50:43.403Z,30.70
2022-10-23T16:53:16.180Z,30.61
2022-10-23T16:55:48.258Z,30.65
2022-10-23T16:58:20.648Z,30.73
2022-10-23T17:00:59.201Z,30.72
2022-10-23T17:03:32.755Z,30.88
2022-10-23T17:06:08.945Z,30.90
2022-10-23T17:08:44.575Z,31.04
2022-10-23T17:11:21.123Z,31.21
2022-10-23T17:13:59.252Z,31.30
2022-10-23T17:16:36.365Z,31.40
2022-10-23T17:19:39.782Z,31.37
2022-10-23T17:22:10.907Z,31.67
2022-10-23T17:24:48.766Z,31.62
2022-10-23T17:27:27.220Z,31.67
2022-10-23T17:30:12.772Z,31.70
2022-10-23T17:32:48.234Z,31.90
2022-10-23T17:35:24.464Z,31.78
2022-10-23T17:38:02.370Z,32.02
2022-10-23T17:41:35.407Z,32.15
2022-10-23T17:44:08.569Z,32.13
2022-10-23T17:46:42.525Z,32.29
2022-10-23T17:50:02.781Z,32.32
2022-10-23T17:52:34.587Z,32.51
2022-10-23T17:55:06.831Z,32.65
2022-10-23T17:57:37.867Z,32.88
2022-10-23T18:00:08.348Z,32.66
2022-10-23T18:02:37.336Z,32.86
2022-10-23T18:05:07.756Z,32.91
2022-10-23T18:07:36.683Z,32.94
2022-10-23T18:10:07.243Z,33.21
2022-10-23T18:12:36.518Z,33.14
2022-10-23T18:15:07.605Z,33.28
2022-10-23T18:17:36.451Z,33.39
2022-10-23T18:20:07.083Z,33.54
2022-10-23T18:22:39.213Z,33.58
2022-10-23T18:25:09.651Z,33.62
2022-10-23T18:27:41.780Z,33.68
2022-10-23T18:30:15.542Z,33.75
2022-10-23T18:32:59.192Z,33.84
2022-10-23T18:35:49.553Z,33.97
2022-10-23T18:38:31.733Z,34.06
2022-10-23T18:41:24.335Z,34.06
2022-10-23T18:44:04.692Z,34.17
2022-10-23T18:47:02.770Z,34.17
2022-10-23T18:49:41.229Z,34.47
2022-10-23T18:52:34.147Z,34.46
2022-10-23T18:55:13.715Z,34.47
2022-10-23T18:58:14.075Z,34.62
2022-10-23T19:00:49.263Z,34.69
2022-10-23T19:03:18.937Z,34.78
2022-10-23T19:05:57.529Z,34.88
2022-10-23T19:08:30.935Z,34.93
2022-10-23T19:11:06.896Z,34.92
2022-10-23T19:13:39.041Z,35.06
2022-10-23T19:16:21.879Z,35.21
2022-10-23T19:18:59.345Z,35.17
2022-10-23T19:21:38.419Z,35.27
2022-10-23T19:24:12.555Z,35.35
2022-10-23T19:26:46.470Z,35.42
2022-10-23T19:29:22.242Z,35.51
2022-10-23T19:31:56.379Z,35.64
2022-10-23T19:34:50.452Z,35.67
2022-10-23T19:37:40.298Z,35.65
2022-10-23T19:40:12.886Z,35.82
2022-10-23T19:42:41.820Z,35.92
2022-10-23T19:45:13.536Z,36.21
2022-10-23T19:47:43.064Z,36.15
2022-10-23T19:50:13.164Z,36.32
2022-10-23T19:52:42.673Z,36.25
2022-10-23T19:55:12.771Z,36.46
2022-10-23T19:57:43.611Z,36.50
2022-10-23T20:00:15.987Z,36.61
2022-10-23T20:02:51.483Z,36.69
2022-10-23T20:05:24.525Z,36.73
2022-10-23T20:07:54.101Z,36.81
2022-10-23T20:10:25.403Z,36.88
2022-10-23T20:13:08.136Z,36.99
2022-10-23T20:15:46.596Z,37.15
2022-10-23T20:18:16.306Z,37.22
2022-10-23T20:20:46.365Z,37.22
2022-10-23T20:23:16.981Z,37.38
2022-10-23T20:25:46.738Z,37.50
2022-10-23T20:28:32.481Z,37.61
2022-10-23T20:31:28.832Z,37.69
2022-10-23T20:34:00.002Z,37.71
2022-10-23T20:36:32.016Z,37.80
2022-10-23T20:39:04.353Z,37.95
2022-10-23T20:41:37.438Z,38.00
2022-10-23T20:44:08.854Z,38.04
2022-10-23T20:46:38.715Z,37.98
2022-10-23T20:49:08.270Z,38.19
2022-10-23T20:51:37.636Z,38.30
2022-10-23T20:54:08.276Z,38.30
2022-10-23T20:56:39.426Z,38.37
2022-10-23T20:59:12.207Z,38.39
2022-10-23T21:01:43.869Z,38.60
2022-10-23T21:04:15.093Z,38.68
2022-10-23T21:07:08.202Z,38.75
2022-10-23T21:09:35.114Z,38.84
2022-10-23T21:12:05.885Z,38.88
2022-10-23T21:14:35.821Z,38.92
2022-10-23T21:17:19.829Z,39.07
2022-10-23T21:19:50.163Z,39.10
2022-10-23T21:22:19.531Z,39.08
2022-10-23T21:24:49.586Z,39.14
2022-10-23T21:27:19.090Z,39.29
2022-10-23T21:29:48.614Z,39.39
2022-10-23T21:32:21.294Z,39.48
2022-10-23T21:34:55.080Z,39.56
2022-10-23T21:37:25.409Z,39.70
2022-10-23T21:39:55.333Z,39.74
2022-10-23T21:42:33.052Z,39.82
2022-10-23T21:45:01.999Z,39.91
2022-10-23T21:47:31.126Z,39.95
2022-10-23T21:50:02.311Z,40.02
2022-10-23T21:52:36.666Z,40.14
2022-10-23T21:55:08.527Z,40.22
2022-10-23T21:57:38.456Z,40.35
2022-10-23T22:00:13.775Z,40.33
2022-10-23T22:02:44.226Z,40.39
2022-10-23T22:05:16.094Z,40.50
2022-10-23T22:07:48.678Z,40.53
2022-10-23T22:10:18.628Z,40.65
2022-10-23T22:12:48.258Z,40.70
2022-10-23T22:15:18.095Z,40.79
2022-10-23T22:17:47.415Z,40.77
2022-10-23T22:20:16.704Z,40.98
2022-10-23T22:22:45.953Z,40.98
2022-10-23T22:25:15.570Z,41.22
2022-10-23T22:27:45.268Z,41.24
2022-10-23T22:30:14.972Z,41.35
2022-10-23T22:32:44.483Z,41.41
2022-10-23T22:35:14.325Z,41.36
2022-10-23T22:37:43.509Z,41.54
2022-10-23T22:40:13.993Z,41.52
2022-10-23T22:42:43.952Z,41.72
2022-10-23T22:45:14.273Z,41.81
2022-10-23T22:47:43.502Z,41.82
2022-10-23T22:50:13.161Z,42.07
2022-10-23T22:52:42.667Z,42.13
2022-10-23T22:55:12.827Z,42.24
2022-10-23T22:57:42.439Z,42.34
2022-10-23T23:00:14.847Z,42.43
2022-10-23T23:02:47.050Z,42.59
2022-10-23T23:05:16.647Z,42.67
2022-10-23T23:07:46.252Z,42.71
2022-10-23T23:10:16.897Z,42.75
2022-10-23T23:12:46.706Z,42.88
2022-10-23T23:15:16.312Z,43.01
2022-10-23T23:17:46.429Z,43.05
2022-10-23T23:20:16.391Z,43.15
2022-10-23T23:22:46.188Z,43.26
2022-10-23T23:25:16.109Z,43.21
2022-10-23T23:27:45.939Z,43.40
2022-10-23T23:30:15.479Z,43.48
2022-10-23T23:32:45.017Z,43.64
2022-10-23T23:35:15.245Z,43.62
2022-10-23T23:37:45.026Z,43.75
2022-10-23T23:40:15.252Z,43.88
2022-10-23T23:42:46.517Z,43.85
2022-10-23T23:45:16.093Z,44.04
2022-10-23T23:47:48.935Z,44.15
2022-10-23T23:50:19.420Z,44.26
2022-10-23T23:52:49.492Z,44.26
2022-10-23T23:55:19.452Z,44.36
2022-10-23T23:57:49.325Z,44.35
